Time;durP1;ratioP1;P1;durP2;ratioP2;P2;SDS_P1;SDS_P2;PMS_P1;PMS_P2;Temp;Humidity;BMP_temperature;BMP_pressure;BME280_temperature;BME280_humidity;BME280_pressure;Samples;Min_cycle;Max_cycle;Signal;HPM_P1;HPM_P2
2022/05/19 00:00:22;;;;;;;6.77;2.00;;;9.50;99.90;;;;;;4993509;28;20180;-59
2022/05/19 00:02:48;;;;;;;8.37;1.97;;;9.60;99.90;;;;;;4993894;28;20194;-59
2022/05/19 00:05:14;;;;;;;7.23;2.30;;;9.60;99.90;;;;;;4976125;28;20190;-59
2022/05/19 00:07:41;;;;;;;13.53;2.17;;;9.60;99.90;;;;;;4976138;28;20194;-59
2022/05/19 00:10:07;;;;;;;7.50;2.37;;;9.50;99.90;;;;;;4993121;28;20191;-59
2022/05/19 00:12:33;;;;;;;6.50;2.57;;;9.50;99.90;;;;;;4993451;28;20638;-59
2022/05/19 00:15:00;;;;;;;8.90;2.50;;;9.40;99.90;;;;;;4993641;28;20185;-59
2022/05/19 00:17:25;;;;;;;5.30;2.33;;;9.40;99.90;;;;;;4992840;28;20556;-59
2022/05/19 00:19:51;;;;;;;6.90;2.07;;;9.30;99.90;;;;;;4993621;28;20188;-59
2022/05/19 00:22:17;;;;;;;6.77;2.10;;;9.30;99.90;;;;;;4992996;28;20186;-59
2022/05/19 00:24:43;;;;;;;9.53;2.37;;;9.30;99.90;;;;;;5005622;28;20192;-61
2022/05/19 00:27:09;;;;;;;10.10;2.20;;;9.30;99.90;;;;;;5012486;28;20265;-59
2022/05/19 00:29:35;;;;;;;4.50;2.40;;;9.30;99.90;;;;;;5012850;28;20178;-58
2022/05/19 00:32:01;;;;;;;10.73;2.57;;;9.30;99.90;;;;;;5012379;28;20190;-59
2022/05/19 00:34:27;;;;;;;10.90;2.40;;;9.30;99.90;;;;;;5012402;28;20546;-58
2022/05/19 00:37:00;;;;;;;8.37;2.33;;;9.30;99.90;;;;;;5012415;28;20190;-58
2022/05/19 00:39:27;;;;;;;3.90;1.93;;;9.30;99.90;;;;;;5011234;28;20311;-59
2022/05/19 00:44:38;;;;;;;8.13;2.43;;;9.30;99.90;;;;;;5012738;28;20200;-58
2022/05/19 00:47:05;;;;;;;12.17;2.60;;;9.40;99.90;;;;;;5012784;28;20193;-58
2022/05/19 00:49:34;;;;;;;3.70;1.80;;;9.40;99.90;;;;;;5012164;28;20191;-59
2022/05/19 00:52:01;;;;;;;5.37;2.20;;;9.50;99.90;;;;;;5012166;28;20641;-58
2022/05/19 00:54:32;;;;;;;7.30;2.40;;;9.50;99.90;;;;;;5011807;28;20239;-58
2022/05/19 00:57:01;;;;;;;7.07;1.90;;;9.50;99.90;;;;;;4994524;28;20582;-58
2022/05/19 00:59:36;;;;;;;6.57;2.07;;;9.50;99.90;;;;;;5012156;28;20186;-58
2022/05/19 01:02:07;;;;;;;5.03;2.40;;;9.50;99.90;;;;;;5012229;28;20178;-58
2022/05/19 01:04:51;;;;;;;11.00;2.37;;;9.50;99.90;;;;;;5012144;28;20184;-58
2022/05/19 01:07:27;;;;;;;5.40;1.70;;;9.50;99.90;;;;;;5011724;28;20190;-58
2022/05/19 01:09:56;;;;;;;11.60;2.27;;;9.50;99.90;;;;;;5012184;28;20179;-58
2022/05/19 01:12:22;;;;;;;4.70;2.10;;;9.50;99.90;;;;;;5011770;28;20658;-58
2022/05/19 01:14:48;;;;;;;4.83;2.37;;;9.50;99.90;;;;;;5011893;28;20225;-58
2022/05/19 01:17:14;;;;;;;7.03;2.33;;;9.50;99.90;;;;;;4994221;28;20192;-58
2022/05/19 01:19:48;;;;;;;7.97;2.50;;;9.50;99.90;;;;;;5011912;28;20186;-59
2022/05/19 01:22:32;;;;;;;5.40;2.23;;;9.50;99.90;;;;;;5011954;28;20252;-58
2022/05/19 01:25:22;;;;;;;9.43;2.30;;;9.50;99.90;;;;;;4997859;28;20187;-59
2022/05/19 01:27:49;;;;;;;6.57;2.70;;;9.50;99.90;;;;;;4992317;28;20261;-58
2022/05/19 01:30:15;;;;;;;5.20;2.17;;;9.40;99.90;;;;;;4991967;28;20183;-58
2022/05/19 01:32:41;;;;;;;5.80;2.50;;;9.40;99.90;;;;;;4992205;28;20193;-60
2022/05/19 01:35:08;;;;;;;6.40;2.00;;;9.30;99.90;;;;;;4992288;28;20213;-58
2022/05/19 01:37:34;;;;;;;4.80;2.10;;;9.20;99.90;;;;;;4991890;28;20179;-58
2022/05/19 01:40:11;;;;;;;4.50;1.97;;;9.20;99.90;;;;;;4991965;28;20192;-58
2022/05/19 01:42:37;;;;;;;5.77;2.43;;;9.10;99.90;;;;;;4992196;28;20177;-58
2022/05/19 01:45:35;;;;;;;8.33;2.43;;;9.10;99.90;;;;;;4992265;28;20188;-59
2022/05/19 01:48:11;;;;;;;7.63;2.47;;;9.10;99.90;;;;;;4992407;28;20203;-62
2022/05/19 01:51:02;;;;;;;7.67;2.17;;;9.10;99.90;;;;;;4993547;28;20191;-60
2022/05/19 01:54:06;;;;;;;6.43;1.87;;;9.20;99.90;;;;;;4995658;28;20243;-59
2022/05/19 01:56:39;;;;;;;6.90;2.27;;;9.10;99.90;;;;;;4995927;28;20184;-58
2022/05/19 01:59:18;;;;;;;13.90;2.33;;;9.10;99.90;;;;;;4995931;28;20188;-58
2022/05/19 02:01:51;;;;;;;10.87;2.40;;;9.10;99.90;;;;;;4995694;28;20180;-59
2022/05/19 02:04:26;;;;;;;6.97;2.20;;;9.10;99.90;;;;;;4995843;28;20695;-59
2022/05/19 02:07:03;;;;;;;8.47;2.37;;;9.20;99.90;;;;;;4995785;28;20176;-58
2022/05/19 02:09:34;;;;;;;5.97;2.13;;;9.20;99.90;;;;;;4995615;28;20178;-58
2022/05/19 02:12:01;;;;;;;5.97;1.90;;;9.20;99.90;;;;;;4995491;28;20187;-58
2022/05/19 02:14:31;;;;;;;5.97;2.23;;;9.20;99.90;;;;;;4995439;28;20344;-58
2022/05/19 02:16:59;;;;;;;5.33;2.03;;;9.30;99.90;;;;;;4995803;28;20178;-58
2022/05/19 02:19:29;;;;;;;4.50;1.87;;;9.20;99.90;;;;;;4995433;28;20181;-59
2022/05/19 02:21:55;;;;;;;6.30;2.30;;;9.20;99.90;;;;;;4995458;28;20190;-59
2022/05/19 02:24:25;;;;;;;6.90;2.50;;;9.20;99.90;;;;;;5004141;28;20196;-59
2022/05/19 02:26:51;;;;;;;7.37;2.70;;;9.20;99.90;;;;;;5015091;28;20188;-58
2022/05/19 02:29:22;;;;;;;5.90;1.97;;;9.20;99.90;;;;;;5014646;28;20318;-58
2022/05/19 02:31:49;;;;;;;4.77;2.03;;;9.20;99.90;;;;;;5014882;28;20552;-59
2022/05/19 02:34:14;;;;;;;4.10;2.37;;;9.20;99.90;;;;;;5014944;28;20554;-59
2022/05/19 02:36:41;;;;;;;3.97;1.90;;;9.20;99.90;;;;;;5014822;28;20311;-62
2022/05/19 02:39:08;;;;;;;12.27;2.10;;;9.20;99.90;;;;;;5014736;28;20640;-58
2022/05/19 02:41:34;;;;;;;9.93;2.30;;;9.10;99.90;;;;;;5014286;28;20189;-59
2022/05/19 02:44:00;;;;;;;7.93;2.07;;;9.10;99.90;;;;;;5014886;28;20295;-58
2022/05/19 02:46:26;;;;;;;7.03;2.40;;;9.20;99.90;;;;;;5014228;28;20181;-59
2022/05/19 02:48:52;;;;;;;6.43;2.07;;;9.20;99.90;;;;;;5014657;28;20684;-58
2022/05/19 02:51:18;;;;;;;9.50;2.10;;;9.20;99.90;;;;;;5014113;28;20200;-59
2022/05/19 02:53:44;;;;;;;4.47;1.87;;;9.20;99.90;;;;;;5014292;28;20246;-61
2022/05/19 02:56:09;;;;;;;12.13;2.10;;;9.10;99.90;;;;;;5014145;28;20514;-59
2022/05/19 02:58:35;;;;;;;4.40;2.20;;;9.20;99.90;;;;;;4996731;28;20189;-59
2022/05/19 03:01:01;;;;;;;5.07;2.20;;;9.10;99.90;;;;;;5014221;28;20234;-58
2022/05/19 03:03:27;;;;;;;9.83;2.40;;;9.10;99.90;;;;;;5013672;28;20257;-58
2022/05/19 03:05:52;;;;;;;12.40;2.43;;;9.20;99.90;;;;;;5013817;28;20272;-60
2022/05/19 03:08:18;;;;;;;6.63;1.80;;;9.20;99.90;;;;;;5013749;28;20188;-59
2022/05/19 03:10:44;;;;;;;6.07;2.13;;;9.30;99.90;;;;;;5014450;28;20208;-59
2022/05/19 03:13:36;;;;;;;6.13;2.10;;;9.30;99.90;;;;;;5013828;28;20209;-61
2022/05/19 03:16:07;;;;;;;6.93;2.00;;;9.30;99.90;;;;;;5010019;28;20677;-59
2022/05/19 03:18:33;;;;;;;9.97;2.03;;;9.30;99.90;;;;;;5013529;28;20251;-60
2022/05/19 03:20:59;;;;;;;6.33;1.90;;;9.30;99.90;;;;;;5013438;28;20648;-59
2022/05/19 03:23:25;;;;;;;8.70;2.13;;;9.40;99.90;;;;;;5011455;28;20255;-60
2022/05/19 03:25:50;;;;;;;9.97;2.67;;;9.40;99.90;;;;;;4993895;28;20620;-60
2022/05/19 03:28:16;;;;;;;7.27;2.20;;;9.40;99.90;;;;;;4993937;28;20204;-60
2022/05/19 03:30:43;;;;;;;5.27;1.80;;;9.40;99.90;;;;;;4993750;28;20191;-59
2022/05/19 03:33:09;;;;;;;6.70;1.97;;;9.40;99.90;;;;;;4993591;28;20573;-58
2022/05/19 03:35:34;;;;;;;9.50;2.07;;;9.40;99.90;;;;;;4993892;28;20179;-57
2022/05/19 03:38:00;;;;;;;7.70;2.53;;;9.40;99.90;;;;;;4993680;28;20642;-61
2022/05/19 03:40:26;;;;;;;14.60;2.13;;;9.40;99.90;;;;;;4993675;28;20184;-58
2022/05/19 03:42:52;;;;;;;15.17;2.93;;;9.50;99.90;;;;;;4993432;28;20187;-59
2022/05/19 03:45:18;;;;;;;5.50;2.20;;;9.50;99.90;;;;;;4993637;28;20181;-71
2022/05/19 03:47:44;;;;;;;7.57;2.20;;;9.50;99.90;;;;;;4993438;28;20197;-58
2022/05/19 03:50:10;;;;;;;14.33;3.27;;;9.60;99.90;;;;;;4993693;28;20186;-58
2022/05/19 03:52:38;;;;;;;11.93;2.40;;;9.60;99.90;;;;;;4993263;28;20203;-58
2022/05/19 03:55:04;;;;;;;15.33;3.03;;;9.60;99.90;;;;;;4993481;28;20206;-59
2022/05/19 03:57:30;;;;;;;4.77;2.43;;;9.70;99.90;;;;;;4992671;28;20201;-58
2022/05/19 03:59:55;;;;;;;10.00;3.13;;;9.80;99.90;;;;;;4975943;28;20251;-59
2022/05/19 04:02:21;;;;;;;11.57;3.30;;;9.80;99.90;;;;;;4993037;28;20223;-61
2022/05/19 04:04:47;;;;;;;4.60;2.47;;;9.80;99.90;;;;;;4993539;28;20215;-60
2022/05/19 04:07:13;;;;;;;8.60;3.20;;;9.90;99.90;;;;;;4975633;28;20189;-63
2022/05/19 04:09:39;;;;;;;7.93;2.90;;;10.00;99.90;;;;;;4992888;28;20549;-59
2022/05/19 04:12:06;;;;;;;15.07;3.10;;;10.00;99.90;;;;;;4992723;28;20275;-59
2022/05/19 04:14:31;;;;;;;14.03;2.80;;;10.10;99.90;;;;;;4992536;28;20249;-59
2022/05/19 04:16:57;;;;;;;5.70;2.60;;;10.20;99.90;;;;;;4993258;28;20651;-60
2022/05/19 04:19:23;;;;;;;7.50;2.73;;;10.20;99.90;;;;;;4992862;28;20624;-59
2022/05/19 04:21:49;;;;;;;8.73;2.43;;;10.20;99.90;;;;;;4975145;28;20244;-57
2022/05/19 04:24:14;;;;;;;13.50;2.70;;;10.30;99.90;;;;;;5001454;28;20610;-59
2022/05/19 04:26:40;;;;;;;13.33;2.47;;;10.30;99.90;;;;;;5011506;28;20217;-58
2022/05/19 04:29:06;;;;;;;7.97;1.93;;;10.30;99.90;;;;;;5012010;28;20198;-60
2022/05/19 04:31:32;;;;;;;13.37;2.40;;;10.40;99.90;;;;;;5011516;28;20243;-60
2022/05/19 04:33:57;;;;;;;9.83;2.40;;;10.50;99.90;;;;;;5011861;28;20215;-61
2022/05/19 04:36:23;;;;;;;16.23;3.30;;;10.60;99.90;;;;;;5012097;28;20569;-60
2022/05/19 04:38:49;;;;;;;5.87;2.60;;;10.70;99.90;;;;;;5012120;28;20182;-60
2022/05/19 04:41:14;;;;;;;10.43;2.60;;;10.80;99.70;;;;;;5011872;28;20179;-59
2022/05/19 04:43:40;;;;;;;9.03;2.70;;;10.80;99.50;;;;;;5011516;28;20621;-59
2022/05/19 04:46:06;;;;;;;9.33;2.20;;;10.80;99.30;;;;;;5011857;28;20175;-60
2022/05/19 04:48:31;;;;;;;4.90;2.20;;;10.80;99.40;;;;;;4993436;28;20698;-59
2022/05/19 04:50:58;;;;;;;20.57;2.97;;;10.80;99.70;;;;;;4993691;28;20187;-60
2022/05/19 04:53:25;;;;;;;10.97;2.67;;;10.90;99.80;;;;;;5010596;28;20596;-59
2022/05/19 04:55:53;;;;;;;10.07;3.27;;;11.00;99.30;;;;;;5011030;28;20204;-59
2022/05/19 04:58:20;;;;;;;5.50;1.90;;;11.10;99.00;;;;;;5010727;28;20231;-61
2022/05/19 05:00:51;;;;;;;10.27;2.70;;;11.20;98.80;;;;;;5011255;28;20672;-60
2022/05/19 05:03:17;;;;;;;8.83;2.40;;;11.30;98.70;;;;;;5011223;28;20638;-61
2022/05/19 05:05:43;;;;;;;6.37;2.33;;;11.40;98.30;;;;;;5011326;28;20187;-61
2022/05/19 05:08:09;;;;;;;6.23;2.37;;;11.50;98.10;;;;;;5011485;28;20268;-62
2022/05/19 05:10:35;;;;;;;5.93;2.10;;;11.50;98.00;;;;;;5010997;28;20192;-61
2022/05/19 05:13:08;;;;;;;14.53;2.80;;;11.50;97.90;;;;;;5010715;28;20274;-60
2022/05/19 05:15:34;;;;;;;8.27;2.63;;;11.60;97.70;;;;;;4993181;28;20580;-60
2022/05/19 05:18:00;;;;;;;8.97;1.87;;;11.60;97.60;;;;;;5010784;28;20537;-61
2022/05/19 05:20:26;;;;;;;8.90;3.00;;;11.70;97.50;;;;;;5011217;28;20198;-60
2022/05/19 05:22:52;;;;;;;5.70;1.80;;;11.80;97.40;;;;;;5011056;28;20635;-60
2022/05/19 05:25:17;;;;;;;7.83;2.03;;;11.90;97.10;;;;;;4993482;28;20675;-59
2022/05/19 05:27:43;;;;;;;5.10;1.80;;;11.90;97.10;;;;;;4990531;28;20278;-61
2022/05/19 05:30:11;;;;;;;9.47;2.47;;;11.90;97.00;;;;;;4991516;28;20184;-60
2022/05/19 05:32:37;;;;;;;14.00;2.60;;;12.00;97.10;;;;;;4991253;28;20192;-62
2022/05/19 05:35:05;;;;;;;7.97;2.30;;;12.10;96.90;;;;;;4991544;28;20297;-58
2022/05/19 05:37:31;;;;;;;7.63;1.83;;;12.10;96.60;;;;;;4991204;28;20178;-59
2022/05/19 05:39:57;;;;;;;6.40;2.30;;;12.20;96.40;;;;;;4991290;28;20513;-61
2022/05/19 05:42:22;;;;;;;14.80;2.80;;;12.30;96.00;;;;;;4990907;28;20275;-61
2022/05/19 05:44:49;;;;;;;9.17;2.57;;;12.30;96.10;;;;;;4991110;28;20278;-60
2022/05/19 05:47:15;;;;;;;11.23;2.87;;;12.40;96.10;;;;;;4991047;28;20600;-60
2022/05/19 05:49:40;;;;;;;11.27;2.60;;;12.40;95.90;;;;;;4991199;28;20275;-63
2022/05/19 05:52:07;;;;;;;5.57;2.80;;;12.50;96.30;;;;;;4991332;28;20554;-61
2022/05/19 05:54:34;;;;;;;8.83;3.00;;;12.70;96.20;;;;;;4990845;28;20293;-63
2022/05/19 05:57:00;;;;;;;6.40;2.90;;;12.70;95.60;;;;;;4991219;28;20187;-60
2022/05/19 05:59:26;;;;;;;13.43;2.87;;;12.70;95.70;;;;;;4991216;28;20573;-67
2022/05/19 06:01:52;;;;;;;7.20;2.90;;;12.80;95.60;;;;;;4957588;28;20678;-61
2022/05/19 06:04:18;;;;;;;6.27;2.87;;;12.90;95.70;;;;;;4991493;28;20188;-61
2022/05/19 06:06:45;;;;;;;8.83;2.93;;;13.00;95.30;;;;;;4991172;28;20181;-61
2022/05/19 06:09:13;;;;;;;10.60;3.13;;;13.10;95.20;;;;;;4991335;28;20302;-65
2022/05/19 06:11:39;;;;;;;7.30;2.77;;;13.00;95.30;;;;;;4991135;28;20219;-61
2022/05/19 06:14:05;;;;;;;11.50;2.93;;;13.10;94.90;;;;;;4990946;28;20246;-61
2022/05/19 06:16:31;;;;;;;10.03;2.80;;;13.10;95.00;;;;;;4991241;28;20187;-60
2022/05/19 06:18:57;;;;;;;7.27;2.50;;;13.20;95.00;;;;;;4973913;28;20238;-62
2022/05/19 06:21:22;;;;;;;3.67;2.00;;;13.20;94.70;;;;;;4973361;28;20276;-61
2022/05/19 06:23:48;;;;;;;8.67;2.50;;;13.30;94.70;;;;;;4995601;28;20234;-60
2022/05/19 06:26:14;;;;;;;9.20;2.63;;;13.40;94.60;;;;;;4992785;28;20184;-60
2022/05/19 06:28:40;;;;;;;7.37;2.73;;;13.50;94.40;;;;;;5010276;28;20720;-60
2022/05/19 06:31:05;;;;;;;4.73;2.47;;;13.60;94.20;;;;;;5010524;28;20179;-61
2022/05/19 06:33:35;;;;;;;5.63;2.10;;;13.70;94.40;;;;;;5010186;28;20319;-61
2022/05/19 06:36:02;;;;;;;9.30;2.60;;;13.70;93.70;;;;;;5010695;28;20261;-59
2022/05/19 06:38:28;;;;;;;6.10;1.97;;;13.60;93.70;;;;;;5012613;28;20180;-66
2022/05/19 06:42:00;;;;;;;5.27;1.93;;;13.70;93.90;;;;;;5013969;28;20305;-60
2022/05/19 06:43:40;;;;;;;9.40;2.43;;;13.80;94.20;;;;;;5013780;28;20199;-60
2022/05/19 06:46:05;;;;;;;4.83;1.60;;;13.90;93.80;;;;;;5013672;28;20191;-60
2022/05/19 06:48:31;;;;;;;5.70;2.00;;;14.10;93.30;;;;;;5013466;28;20180;-61
2022/05/19 06:50:57;;;;;;;7.33;2.70;;;14.00;92.90;;;;;;5013372;28;20171;-59
2022/05/19 06:53:22;;;;;;;5.67;1.80;;;14.20;93.50;;;;;;4995719;28;20246;-62
2022/05/19 06:55:48;;;;;;;7.27;1.70;;;14.20;92.40;;;;;;5013743;28;20186;-61
2022/05/19 06:58:14;;;;;;;3.03;1.57;;;14.20;91.80;;;;;;5013717;28;20203;-60
2022/05/19 07:00:40;;;;;;;6.70;1.73;;;14.30;91.20;;;;;;5013580;28;20188;-62
2022/05/19 07:03:06;;;;;;;7.37;1.50;;;14.40;91.30;;;;;;5013306;28;20680;-60
2022/05/19 07:05:35;;;;;;;6.80;1.60;;;14.60;91.20;;;;;;4995771;28;20187;-60
2022/05/19 07:08:01;;;;;;;3.50;1.60;;;14.60;90.70;;;;;;5013586;28;20180;-60
2022/05/19 07:10:27;;;;;;;2.77;1.60;;;14.60;90.60;;;;;;5013594;28;20226;-61
2022/05/19 07:12:54;;;;;;;9.07;2.23;;;14.50;90.40;;;;;;5013429;28;20199;-60
2022/05/19 07:15:21;;;;;;;6.27;1.80;;;14.70;90.70;;;;;;5013042;28;20256;-61
2022/05/19 07:17:47;;;;;;;12.13;1.90;;;14.80;89.20;;;;;;5013016;28;20286;-59
2022/05/19 07:22:57;;;;;;;3.50;1.37;;;15.00;88.50;;;;;;5013073;28;20617;-60
2022/05/19 07:25:23;;;;;;;9.57;2.47;;;15.10;87.80;;;;;;4977535;28;20278;-61
2022/05/19 07:27:49;;;;;;;7.47;2.70;;;15.20;86.50;;;;;;4993279;28;20184;-61
2022/05/19 07:30:15;;;;;;;3.40;1.53;;;15.20;85.70;;;;;;4993263;28;20631;-62
2022/05/19 07:32:41;;;;;;;7.27;1.73;;;15.10;84.80;;;;;;4992814;28;20184;-61
2022/05/19 07:35:09;;;;;;;4.50;1.60;;;15.10;85.60;;;;;;4993370;28;20230;-60
2022/05/19 07:37:35;;;;;;;6.87;1.60;;;15.20;84.80;;;;;;4992600;28;20279;-60
2022/05/19 07:40:01;;;;;;;3.43;1.50;;;15.20;84.10;;;;;;4992434;28;20745;-60
2022/05/19 07:42:27;;;;;;;2.37;1.47;;;15.20;84.90;;;;;;4992567;28;20251;-60
2022/05/19 07:44:53;;;;;;;3.33;1.60;;;15.30;84.20;;;;;;4992309;28;20271;-59
2022/05/19 07:47:19;;;;;;;4.47;1.97;;;15.40;85.00;;;;;;4974910;28;20189;-59
2022/05/19 07:49:46;;;;;;;5.53;1.73;;;15.50;83.30;;;;;;4992189;28;20246;-61
2022/05/19 07:52:13;;;;;;;11.53;2.33;;;15.50;83.40;;;;;;4993025;28;20621;-61
2022/05/19 07:54:39;;;;;;;8.23;1.77;;;15.60;82.10;;;;;;4992094;28;20263;-60
2022/05/19 07:57:05;;;;;;;6.70;1.60;;;15.60;81.10;;;;;;4992804;28;20180;-58
2022/05/19 07:59:31;;;;;;;5.67;2.03;;;15.70;81.60;;;;;;4975268;28;20316;-59
2022/05/19 08:01:56;;;;;;;9.03;2.10;;;15.70;80.20;;;;;;4992562;28;20266;-60
2022/05/19 08:04:24;;;;;;;7.87;1.50;;;15.70;80.50;;;;;;4992468;28;20599;-61
2022/05/19 08:06:51;;;;;;;4.70;1.50;;;15.80;79.60;;;;;;4992893;28;20276;-61
2022/05/19 08:12:03;;;;;;;6.30;1.67;;;15.90;79.30;;;;;;4992874;28;20582;-60
2022/05/19 08:17:19;;;;;;;6.57;1.70;;;15.90;78.50;;;;;;4992755;28;20544;-61
2022/05/19 08:19:46;;;;;;;3.20;1.10;;;15.90;77.60;;;;;;4992273;28;20175;-59
2022/05/19 08:22:12;;;;;;;6.00;1.83;;;16.10;78.10;;;;;;4992242;28;20206;-61
2022/05/19 08:24:38;;;;;;;5.03;3.37;;;16.20;77.80;;;;;;5003679;28;20194;-62
2022/05/19 08:27:06;;;;;;;7.33;1.60;;;16.20;77.20;;;;;;5011631;28;20653;-61
2022/05/19 08:29:32;;;;;;;1.73;1.13;;;16.10;77.30;;;;;;4993674;28;20250;-62
2022/05/19 08:31:58;;;;;;;2.33;1.17;;;16.10;76.70;;;;;;5011273;28;20263;-61
2022/05/19 08:34:24;;;;;;;5.63;1.70;;;16.10;76.70;;;;;;5011466;28;20721;-60
2022/05/19 08:36:50;;;;;;;10.50;1.90;;;16.10;76.10;;;;;;5011258;28;20532;-63
2022/05/19 08:39:18;;;;;;;7.17;2.27;;;16.20;74.10;;;;;;5011288;28;20216;-61
2022/05/19 08:41:55;;;;;;;5.77;1.67;;;16.30;72.90;;;;;;5010788;28;20186;-61
2022/05/19 08:44:49;;;;;;;2.57;1.30;;;16.30;73.20;;;;;;5011335;28;20203;-61
2022/05/19 08:47:20;;;;;;;7.37;2.10;;;16.40;72.50;;;;;;5011389;28;20183;-61
2022/05/19 08:50:01;;;;;;;14.13;3.10;;;16.40;73.80;;;;;;5011366;28;20213;-61
2022/05/19 08:52:40;;;;;;;10.00;1.90;;;16.50;73.80;;;;;;5011458;28;20184;-63
2022/05/19 08:55:06;;;;;;;2.40;1.30;;;16.50;72.50;;;;;;4972302;28;20216;-62
2022/05/19 08:57:58;;;;;;;6.33;1.17;;;16.60;70.90;;;;;;4972292;28;20197;-61
2022/05/19 09:00:31;;;;;;;5.33;1.80;;;16.50;70.50;;;;;;4963925;28;20184;-61
2022/05/19 09:03:12;;;;;;;3.33;1.17;;;16.60;70.70;;;;;;4966630;28;20600;-62
2022/05/19 09:05:57;;;;;;;3.67;1.40;;;16.80;70.60;;;;;;4971610;28;20618;-60
2022/05/19 09:08:41;;;;;;;11.47;2.00;;;16.90;69.30;;;;;;4971950;28;20224;-65
2022/05/19 09:11:16;;;;;;;5.27;1.50;;;17.00;69.00;;;;;;4972309;28;20228;-64
2022/05/19 09:13:56;;;;;;;5.30;1.30;;;17.00;68.40;;;;;;4971834;28;20420;-60
2022/05/19 09:16:32;;;;;;;5.57;1.60;;;16.90;69.90;;;;;;4971588;28;20188;-60
2022/05/19 09:19:17;;;;;;;9.43;2.20;;;17.00;70.20;;;;;;4970943;28;20176;-62
2022/05/19 09:21:44;;;;;;;3.40;1.50;;;16.90;68.70;;;;;;4971311;28;20222;-60
2022/05/19 09:24:12;;;;;;;3.67;1.50;;;17.00;66.90;;;;;;4972217;28;20192;-61
2022/05/19 09:26:50;;;;;;;9.80;1.13;;;17.10;66.70;;;;;;4971374;28;20185;-62
2022/05/19 09:29:30;;;;;;;3.43;1.10;;;17.30;65.00;;;;;;4971502;28;20176;-61
2022/05/19 09:32:06;;;;;;;6.33;1.07;;;17.20;64.10;;;;;;4971390;28;20626;-61
2022/05/19 09:34:34;;;;;;;2.10;1.00;;;17.20;65.30;;;;;;4971879;28;20226;-60
2022/05/19 09:37:03;;;;;;;6.60;1.40;;;17.20;64.00;;;;;;4971371;28;20184;-60
2022/05/19 09:39:35;;;;;;;3.30;1.30;;;17.30;64.40;;;;;;4971873;28;20256;-60
2022/05/19 09:42:10;;;;;;;3.83;1.30;;;17.50;65.00;;;;;;4971426;28;20199;-61
2022/05/19 09:44:43;;;;;;;3.23;0.93;;;17.50;63.10;;;;;;4971782;28;20208;-60
2022/05/19 09:47:26;;;;;;;2.73;0.90;;;17.70;62.20;;;;;;4971503;28;20212;-59
2022/05/19 09:50:04;;;;;;;4.20;1.30;;;17.70;62.40;;;;;;4971369;28;20212;-59
2022/05/19 09:52:32;;;;;;;4.50;1.47;;;17.70;63.20;;;;;;4971236;28;20181;-60
2022/05/19 09:55:01;;;;;;;5.03;1.30;;;17.70;62.50;;;;;;5009783;28;20251;-60
2022/05/19 09:57:39;;;;;;;2.93;1.00;;;17.80;59.10;;;;;;5010109;28;20180;-60
2022/05/19 10:00:17;;;;;;;2.93;0.80;;;18.00;57.80;;;;;;5010340;28;20234;-62
2022/05/19 10:02:48;;;;;;;4.33;1.20;;;18.00;57.60;;;;;;5009896;28;20168;-60
2022/05/19 10:05:35;;;;;;;2.53;0.97;;;18.00;59.10;;;;;;5010561;28;20569;-61
2022/05/19 10:08:07;;;;;;;2.40;1.00;;;17.80;58.50;;;;;;5010474;28;20625;-61
2022/05/19 10:10:43;;;;;;;3.33;1.23;;;17.90;60.10;;;;;;5010110;28;20195;-59
2022/05/19 10:13:12;;;;;;;5.10;1.13;;;18.20;59.00;;;;;;5014020;28;20214;-60
2022/05/19 10:16:14;;;;;;;5.17;1.23;;;18.20;58.90;;;;;;5014336;28;20211;-60
2022/05/19 10:19:13;;;;;;;6.97;1.30;;;18.30;60.00;;;;;;5013261;28;20199;-63
2022/05/19 10:22:00;;;;;;;2.57;1.47;;;18.50;61.10;;;;;;5008898;28;20552;-60
2022/05/19 10:24:38;;;;;;;4.87;1.47;;;18.80;62.40;;;;;;5014488;28;20237;-62
2022/05/19 10:31:03;;;;;;;3.40;1.03;;;19.20;57.40;;;;;;5014238;28;20194;-60
2022/05/19 10:33:41;;;;;;;2.63;1.40;;;19.10;59.10;;;;;;4933609;29;20404;-60
2022/05/19 10:36:41;;;;;;;6.80;1.53;;;19.00;57.30;;;;;;5014181;28;20172;-61
2022/05/19 10:39:37;;;;;;;3.23;1.10;;;19.10;58.40;;;;;;5013220;28;20199;-59
2022/05/19 10:42:25;;;;;;;2.57;0.90;;;19.00;55.10;;;;;;5013900;28;20180;-60
2022/05/19 10:44:56;;;;;;;3.20;0.90;;;19.00;53.70;;;;;;5013774;28;20195;-60
2022/05/19 10:47:28;;;;;;;4.97;1.27;;;18.90;52.80;;;;;;5013203;28;20577;-61
2022/05/19 10:50:06;;;;;;;6.03;1.40;;;19.10;52.80;;;;;;5013482;28;20180;-59
2022/05/19 10:52:56;;;;;;;3.37;0.80;;;19.10;53.90;;;;;;5013896;28;20187;-61
2022/05/19 10:55:33;;;;;;;4.77;0.73;;;19.30;53.00;;;;;;5013654;28;20196;-64
2022/05/19 10:58:33;;;;;;;6.43;1.07;;;19.30;53.80;;;;;;5013524;28;20582;-61
2022/05/19 11:01:17;;;;;;;1.87;0.90;;;19.40;53.40;;;;;;5013587;28;20259;-59
2022/05/19 11:04:01;;;;;;;12.93;1.40;;;19.50;51.50;;;;;;4995887;28;20191;-62
2022/05/19 11:06:55;;;;;;;4.43;1.35;;;19.40;49.50;;;;;;5013611;28;20184;-61
2022/05/19 11:09:29;;;;;;;7.70;1.90;;;19.80;49.20;;;;;;4992924;28;20278;-60
2022/05/19 11:12:34;;;;;;;5.13;2.05;;;20.40;48.60;;;;;;4993686;28;20182;-59
2022/05/19 11:15:12;;;;;;;4.20;1.23;;;21.10;47.30;;;;;;4949693;28;20228;-60
2022/05/19 11:17:58;;;;;;;4.78;1.13;;;21.50;47.40;;;;;;4993104;28;20203;-61
2022/05/19 11:20:54;;;;;;;5.20;1.05;;;21.50;49.40;;;;;;4993514;28;20709;-60
2022/05/19 11:23:55;;;;;;;8.80;2.17;;;22.10;48.90;;;;;;4993133;28;20184;-59
2022/05/19 11:26:24;;;;;;;4.07;0.98;;;24.30;45.60;;;;;;4993463;28;20657;-60
2022/05/19 11:29:18;;;;;;;4.07;0.90;;;25.50;42.40;;;;;;4975509;28;20736;-60
2022/05/19 11:32:06;;;;;;;4.72;1.10;;;26.60;42.70;;;;;;4975497;28;20227;-61
2022/05/19 11:34:37;;;;;;;5.15;1.50;;;27.80;38.00;;;;;;4992901;28;20210;-59
2022/05/19 11:37:14;;;;;;;3.40;1.23;;;28.20;37.90;;;;;;4992939;28;20313;-63
2022/05/19 11:40:07;;;;;;;6.60;0.98;;;27.80;36.00;;;;;;4975620;28;20184;-59
2022/05/19 11:42:39;;;;;;;5.65;1.33;;;28.10;33.30;;;;;;4993542;28;20184;-63
2022/05/19 11:45:10;;;;;;;4.60;1.08;;;28.60;33.90;;;;;;4993414;28;20673;-59
2022/05/19 11:56:22;;;;;;;3.65;0.90;;;29.20;32.20;;;;;;4992953;28;20190;-60
2022/05/19 11:58:48;;;;;;;5.10;1.52;;;30.10;32.00;;;;;;4992693;28;20264;-59
2022/05/19 12:01:32;;;;;;;8.52;2.17;;;30.40;30.70;;;;;;4992933;28;20249;-60
2022/05/19 12:04:16;;;;;;;3.95;1.50;;;30.90;30.90;;;;;;4993034;28;20184;-60
2022/05/19 12:06:46;;;;;;;4.53;0.95;;;31.30;29.70;;;;;;4993276;28;20255;-60
2022/05/19 12:09:43;;;;;;;6.63;1.15;;;31.70;28.60;;;;;;4976387;28;20191;-60
2022/05/19 12:12:33;;;;;;;5.05;1.30;;;32.10;28.90;;;;;;5012709;28;20207;-59
2022/05/19 12:15:08;;;;;;;6.65;1.23;;;32.40;28.80;;;;;;5011683;28;20717;-58
2022/05/19 12:17:41;;;;;;;3.08;1.20;;;32.60;28.00;;;;;;5011994;28;20190;-59
2022/05/19 12:20:39;;;;;;;4.50;1.35;;;32.00;27.50;;;;;;5011403;28;20203;-59
2022/05/19 12:23:27;;;;;;;4.53;1.00;;;32.10;28.20;;;;;;4995388;28;20212;-60
2022/05/19 12:26:12;;;;;;;7.25;1.85;;;33.80;26.70;;;;;;4999244;28;20291;-61
2022/05/19 12:28:50;;;;;;;6.93;1.20;;;32.90;26.90;;;;;;5011966;28;20218;-60
2022/05/19 12:34:07;;;;;;;11.43;2.20;;;31.70;26.70;;;;;;5011750;28;20589;-62
2022/05/19 12:36:51;;;;;;;5.70;1.10;;;32.60;28.00;;;;;;5012109;28;20528;-59
2022/05/19 12:39:17;;;;;;;8.52;1.88;;;32.70;26.60;;;;;;5011659;28;20179;-60
2022/05/19 12:42:16;;;;;;;3.22;1.13;;;33.40;25.80;;;;;;5011894;28;20183;-59
2022/05/19 12:44:46;;;;;;;6.95;1.25;;;34.30;26.10;;;;;;4978267;28;20548;-61
2022/05/19 12:47:32;;;;;;;4.00;1.23;;;34.40;25.40;;;;;;5011123;28;20191;-59
2022/05/19 12:50:04;;;;;;;4.50;1.30;;;34.20;25.50;;;;;;5011151;28;20183;-58
2022/05/19 12:53:04;;;;;;;3.85;1.17;;;34.90;24.90;;;;;;5011540;28;20628;-59
2022/05/19 12:55:35;;;;;;;2.15;0.85;;;34.80;23.60;;;;;;5011358;28;20286;-60
2022/05/19 12:58:33;;;;;;;5.57;0.80;;;35.30;23.50;;;;;;5011422;28;20187;-61
2022/05/19 13:01:19;;;;;;;5.28;1.50;;;34.10;23.50;;;;;;5011178;28;20271;-60
2022/05/19 13:04:15;;;;;;;2.65;1.20;;;33.90;24.90;;;;;;5011254;28;20211;-61
2022/05/19 13:06:55;;;;;;;5.05;0.73;;;32.90;24.30;;;;;;4972078;28;20223;-62
2022/05/19 13:09:26;;;;;;;5.30;1.00;;;33.90;24.30;;;;;;5008804;28;20270;-60
2022/05/19 13:11:55;;;;;;;5.07;1.17;;;34.10;24.60;;;;;;4991213;28;20557;-62
2022/05/19 13:14:28;;;;;;;4.35;1.15;;;35.20;24.40;;;;;;4991290;28;20217;-60
2022/05/19 13:16:54;;;;;;;3.75;1.45;;;35.60;23.50;;;;;;4990856;28;20621;-60
2022/05/19 13:19:26;;;;;;;6.10;1.60;;;36.00;23.50;;;;;;4991477;28;20180;-60
2022/05/19 13:21:57;;;;;;;4.90;1.10;;;35.20;23.40;;;;;;4991175;28;20696;-59
2022/05/19 13:24:25;;;;;;;23.83;2.45;;;34.40;23.80;;;;;;4991333;28;20697;-60
2022/05/19 13:32:38;;;;;;;11.60;2.03;;;32.90;24.00;;;;;;4991788;28;20625;-58
2022/05/19 13:35:21;;;;;;;2.67;1.30;;;33.60;24.00;;;;;;4990833;28;20227;-59
2022/05/19 13:37:47;;;;;;;4.35;1.35;;;33.90;24.30;;;;;;4990688;28;20294;-58
2022/05/19 13:40:28;;;;;;;3.90;1.33;;;33.40;23.90;;;;;;4990930;28;20189;-61
2022/05/19 13:43:03;;;;;;;7.95;1.15;;;34.10;24.40;;;;;;4990977;28;20184;-60